sensor_id;sensor_type;location;lat;lon;timestamp;pressure;altitude;pressure_sealevel;temperature;humidity
30636;BME280;17400;52.392;9.750;2023-02-04T00:00:38;102094.34;;;6.76;100.00
30636;BME280;17400;52.392;9.750;2023-02-04T00:03:08;102106.06;;;6.65;100.00
30636;BME280;17400;52.392;9.750;2023-02-04T00:05:36;102103.66;;;6.62;100.00
30636;BME280;17400;52.392;9.750;2023-02-04T00:08:05;102108.53;;;6.37;100.00
30636;BME280;17400;52.392;9.750;2023-02-04T00:10:34;102095.34;;;6.34;100.00
30636;BME280;17400;52.392;9.750;2023-02-04T00:13:05;102100.19;;;6.40;100.00
30636;BME280;17400;52.392;9.750;2023-02-04T00:15:33;102109.81;;;6.43;100.00
30636;BME280;17400;52.392;9.750;2023-02-04T00:18:00;102122.72;;;6.39;100.00
30636;BME280;17400;52.392;9.750;2023-02-04T00:20:30;102126.97;;;6.42;100.00
30636;BME280;17400;52.392;9.750;2023-02-04T00:22:58;102128.25;;;6.47;100.00
30636;BME280;17400;52.392;9.750;2023-02-04T00:25:28;102121.00;;;6.38;100.00
30636;BME280;17400;52.392;9.750;2023-02-04T00:27:55;102125.13;;;6.42;100.00
30636;BME280;17400;52.392;9.750;2023-02-04T00:30:23;102127.97;;;6.50;100.00
30636;BME280;17400;52.392;9.750;2023-02-04T00:32:51;102122.88;;;6.47;100.00
30636;BME280;17400;52.392;9.750;2023-02-04T00:35:20;102132.91;;;6.45;100.00
30636;BME280;17400;52.392;9.750;2023-02-04T00:37:50;102140.34;;;6.32;100.00
30636;BME280;17400;52.392;9.750;2023-02-04T00:40:18;102144.03;;;6.31;100.00
30636;BME280;17400;52.392;9.750;2023-02-04T00:42:47;102153.63;;;6.24;100.00
30636;BME280;17400;52.392;9.750;2023-02-04T00:45:15;102157.84;;;6.16;100.00
30636;BME280;17400;52.392;9.750;2023-02-04T00:47:43;102164.66;;;6.21;100.00
30636;BME280;17400;52.392;9.750;2023-02-04T00:50:10;102169.44;;;6.17;100.00
30636;BME280;17400;52.392;9.750;2023-02-04T00:52:38;102179.78;;;6.22;100.00
30636;BME280;17400;52.392;9.750;2023-02-04T00:55:08;102194.63;;;6.16;100.00
30636;BME280;17400;52.392;9.750;2023-02-04T00:57:37;102208.34;;;6.13;100.00
30636;BME280;17400;52.392;9.750;2023-02-04T01:00:08;102202.91;;;5.92;100.00
30636;BME280;17400;52.392;9.750;2023-02-04T01:02:36;102208.28;;;5.92;100.00
30636;BME280;17400;52.392;9.750;2023-02-04T01:05:06;102211.47;;;5.86;100.00
30636;BME280;17400;52.392;9.750;2023-02-04T01:07:34;102217.06;;;5.94;100.00
30636;BME280;17400;52.392;9.750;2023-02-04T01:10:03;102226.34;;;6.01;100.00
30636;BME280;17400;52.392;9.750;2023-02-04T01:12:30;102231.88;;;5.99;100.00
30636;BME280;17400;52.392;9.750;2023-02-04T01:14:58;102243.19;;;6.03;100.00
30636;BME280;17400;52.392;9.750;2023-02-04T01:17:27;102253.44;;;6.09;100.00
30636;BME280;17400;52.392;9.750;2023-02-04T01:19:55;102253.09;;;6.03;100.00
30636;BME280;17400;52.392;9.750;2023-02-04T01:22:22;102266.63;;;6.12;100.00
30636;BME280;17400;52.392;9.750;2023-02-04T01:25:11;102273.00;;;6.11;100.00
30636;BME280;17400;52.392;9.750;2023-02-04T01:27:38;102274.44;;;6.15;100.00
30636;BME280;17400;52.392;9.750;2023-02-04T01:30:08;102279.47;;;6.09;100.00
30636;BME280;17400;52.392;9.750;2023-02-04T01:32:38;102282.66;;;6.14;100.00
30636;BME280;17400;52.392;9.750;2023-02-04T01:35:06;102276.38;;;6.13;100.00
30636;BME280;17400;52.392;9.750;2023-02-04T01:37:33;102280.78;;;6.14;100.00
30636;BME280;17400;52.392;9.750;2023-02-04T01:40:01;102281.53;;;6.16;100.00
30636;BME280;17400;52.392;9.750;2023-02-04T01:42:30;102286.03;;;6.16;100.00
30636;BME280;17400;52.392;9.750;2023-02-04T01:44:58;102303.41;;;6.12;100.00
30636;BME280;17400;52.392;9.750;2023-02-04T01:47:25;102310.38;;;6.14;100.00
30636;BME280;17400;52.392;9.750;2023-02-04T01:49:54;102317.69;;;6.12;100.00
30636;BME280;17400;52.392;9.750;2023-02-04T01:52:24;102317.47;;;6.15;100.00
30636;BME280;17400;52.392;9.750;2023-02-04T01:54:52;102329.66;;;6.20;100.00
30636;BME280;17400;52.392;9.750;2023-02-04T01:57:20;102330.91;;;6.15;100.00
30636;BME280;17400;52.392;9.750;2023-02-04T01:59:48;102338.00;;;6.16;100.00
30636;BME280;17400;52.392;9.750;2023-02-04T02:02:43;102356.34;;;6.11;100.00
30636;BME280;17400;52.392;9.750;2023-02-04T02:05:14;102352.16;;;6.19;100.00
30636;BME280;17400;52.392;9.750;2023-02-04T02:07:43;102360.16;;;6.09;100.00
30636;BME280;17400;52.392;9.750;2023-02-04T02:10:14;102360.78;;;6.01;100.00
30636;BME280;17400;52.392;9.750;2023-02-04T02:12:44;102369.44;;;5.93;100.00
30636;BME280;17400;52.392;9.750;2023-02-04T02:15:12;102375.66;;;5.94;100.00
30636;BME280;17400;52.392;9.750;2023-02-04T02:17:40;102374.34;;;5.99;100.00
30636;BME280;17400;52.392;9.750;2023-02-04T02:20:11;102374.22;;;6.01;100.00
30636;BME280;17400;52.392;9.750;2023-02-04T02:22:49;102370.81;;;5.88;100.00
30636;BME280;17400;52.392;9.750;2023-02-04T02:25:19;102377.84;;;5.89;100.00
30636;BME280;17400;52.392;9.750;2023-02-04T02:27:48;102377.22;;;5.96;100.00
30636;BME280;17400;52.392;9.750;2023-02-04T02:30:16;102388.00;;;5.96;100.00
30636;BME280;17400;52.392;9.750;2023-02-04T02:32:46;102406.72;;;5.98;100.00
30636;BME280;17400;52.392;9.750;2023-02-04T02:35:14;102411.97;;;5.99;100.00
30636;BME280;17400;52.392;9.750;2023-02-04T02:37:43;102402.22;;;5.98;100.00
30636;BME280;17400;52.392;9.750;2023-02-04T02:40:11;102414.03;;;5.96;100.00
30636;BME280;17400;52.392;9.750;2023-02-04T02:42:41;102410.59;;;5.94;100.00
30636;BME280;17400;52.392;9.750;2023-02-04T02:45:15;102416.72;;;5.96;100.00
30636;BME280;17400;52.392;9.750;2023-02-04T02:47:45;102428.31;;;5.96;100.00
30636;BME280;17400;52.392;9.750;2023-02-04T02:50:17;102433.34;;;5.90;100.00
30636;BME280;17400;52.392;9.750;2023-02-04T02:52:46;102452.16;;;5.90;100.00
30636;BME280;17400;52.392;9.750;2023-02-04T02:55:16;102445.19;;;5.87;100.00
30636;BME280;17400;52.392;9.750;2023-02-04T02:57:49;102457.66;;;5.88;100.00
30636;BME280;17400;52.392;9.750;2023-02-04T03:00:19;102453.13;;;5.89;100.00
30636;BME280;17400;52.392;9.750;2023-02-04T03:02:54;102457.53;;;5.90;100.00
30636;BME280;17400;52.392;9.750;2023-02-04T03:05:23;102466.69;;;5.87;100.00
30636;BME280;17400;52.392;9.750;2023-02-04T03:07:51;102468.53;;;5.87;100.00
30636;BME280;17400;52.392;9.750;2023-02-04T03:10:19;102481.97;;;5.87;100.00
30636;BME280;17400;52.392;9.750;2023-02-04T03:12:48;102480.50;;;5.82;100.00
30636;BME280;17400;52.392;9.750;2023-02-04T03:15:16;102489.66;;;5.80;100.00
30636;BME280;17400;52.392;9.750;2023-02-04T03:17:44;102502.22;;;5.79;100.00
30636;BME280;17400;52.392;9.750;2023-02-04T03:20:15;102506.50;;;5.82;100.00
30636;BME280;17400;52.392;9.750;2023-02-04T03:22:43;102509.81;;;5.86;100.00
30636;BME280;17400;52.392;9.750;2023-02-04T03:25:11;102514.22;;;5.87;100.00
30636;BME280;17400;52.392;9.750;2023-02-04T03:27:39;102524.59;;;5.80;100.00
30636;BME280;17400;52.392;9.750;2023-02-04T03:30:10;102548.03;;;5.78;100.00
30636;BME280;17400;52.392;9.750;2023-02-04T03:32:38;102546.94;;;5.80;100.00
30636;BME280;17400;52.392;9.750;2023-02-04T03:35:07;102549.63;;;5.80;100.00
30636;BME280;17400;52.392;9.750;2023-02-04T03:37:35;102555.75;;;5.82;100.00
30636;BME280;17400;52.392;9.750;2023-02-04T03:40:03;102561.25;;;5.81;100.00
30636;BME280;17400;52.392;9.750;2023-02-04T03:42:32;102569.22;;;5.82;100.00
30636;BME280;17400;52.392;9.750;2023-02-04T03:45:01;102566.84;;;5.78;100.00
30636;BME280;17400;52.392;9.750;2023-02-04T03:47:30;102564.94;;;5.80;100.00
30636;BME280;17400;52.392;9.750;2023-02-04T03:49:58;102576.31;;;5.83;100.00
30636;BME280;17400;52.392;9.750;2023-02-04T03:52:25;102571.38;;;5.77;100.00
30636;BME280;17400;52.392;9.750;2023-02-04T03:54:54;102569.66;;;5.76;100.00
30636;BME280;17400;52.392;9.750;2023-02-04T03:57:22;102582.25;;;5.76;100.00
30636;BME280;17400;52.392;9.750;2023-02-04T03:59:50;102574.06;;;5.77;100.00
30636;BME280;17400;52.392;9.750;2023-02-04T04:02:17;102584.59;;;5.80;100.00
30636;BME280;17400;52.392;9.750;2023-02-04T04:04:46;102585.94;;;5.75;100.00
30636;BME280;17400;52.392;9.750;2023-02-04T04:07:14;102595.06;;;5.72;100.00
30636;BME280;17400;52.392;9.750;2023-02-04T04:09:42;102600.44;;;5.72;100.00
30636;BME280;17400;52.392;9.750;2023-02-04T04:12:09;102598.53;;;5.74;100.00
30636;BME280;17400;52.392;9.750;2023-02-04T04:14:37;102604.72;;;5.75;100.00
30636;BME280;17400;52.392;9.750;2023-02-04T04:17:05;102606.56;;;5.74;100.00
30636;BME280;17400;52.392;9.750;2023-02-04T04:19:32;102603.88;;;5.74;100.00
30636;BME280;17400;52.392;9.750;2023-02-04T04:22:01;102607.66;;;5.72;100.00
30636;BME280;17400;52.392;9.750;2023-02-04T04:24:29;102610.94;;;5.75;100.00
30636;BME280;17400;52.392;9.750;2023-02-04T04:26:56;102608.16;;;5.77;100.00
30636;BME280;17400;52.392;9.750;2023-02-04T04:29:24;102618.03;;;5.76;100.00
30636;BME280;17400;52.392;9.750;2023-02-04T04:31:52;102633.44;;;5.74;100.00
30636;BME280;17400;52.392;9.750;2023-02-04T04:34:19;102638.06;;;5.72;100.00
30636;BME280;17400;52.392;9.750;2023-02-04T04:36:47;102641.72;;;5.71;100.00
30636;BME280;17400;52.392;9.750;2023-02-04T04:39:16;102643.69;;;5.69;100.00
30636;BME280;17400;52.392;9.750;2023-02-04T04:41:44;102651.63;;;5.71;100.00
30636;BME280;17400;52.392;9.750;2023-02-04T04:44:11;102647.97;;;5.72;100.00
30636;BME280;17400;52.392;9.750;2023-02-04T04:46:39;102648.81;;;5.72;100.00
30636;BME280;17400;52.392;9.750;2023-02-04T04:49:07;102659.69;;;5.71;100.00
30636;BME280;17400;52.392;9.750;2023-02-04T04:51:34;102661.50;;;5.70;100.00
30636;BME280;17400;52.392;9.750;2023-02-04T04:54:02;102667.88;;;5.69;100.00
30636;BME280;17400;52.392;9.750;2023-02-04T04:56:31;102675.94;;;5.69;100.00
30636;BME280;17400;52.392;9.750;2023-02-04T04:58:59;102677.88;;;5.67;100.00
30636;BME280;17400;52.392;9.750;2023-02-04T05:01:26;102682.63;;;5.63;100.00
30636;BME280;17400;52.392;9.750;2023-02-04T05:03:54;102683.22;;;5.56;100.00
30636;BME280;17400;52.392;9.750;2023-02-04T05:06:22;102692.97;;;5.57;100.00
30636;BME280;17400;52.392;9.750;2023-02-04T05:08:51;102677.72;;;5.57;100.00
30636;BME280;17400;52.392;9.750;2023-02-04T05:11:18;102684.91;;;5.57;100.00
30636;BME280;17400;52.392;9.750;2023-02-04T05:13:48;102694.94;;;5.55;100.00
30636;BME280;17400;52.392;9.750;2023-02-04T05:16:15;102694.94;;;5.55;100.00
30636;BME280;17400;52.392;9.750;2023-02-04T05:18:43;102694.06;;;5.54;100.00
30636;BME280;17400;52.392;9.750;2023-02-04T05:21:11;102706.66;;;5.54;100.00
30636;BME280;17400;52.392;9.750;2023-02-04T05:23:40;102712.97;;;5.53;100.00
30636;BME280;17400;52.392;9.750;2023-02-04T05:26:08;102709.78;;;5.47;100.00
30636;BME280;17400;52.392;9.750;2023-02-04T05:28:40;102720.41;;;5.49;100.00
30636;BME280;17400;52.392;9.750;2023-02-04T05:31:09;102722.69;;;5.42;100.00
30636;BME280;17400;52.392;9.750;2023-02-04T05:33:37;102717.56;;;5.39;100.00
30636;BME280;17400;52.392;9.750;2023-02-04T05:36:05;102729.25;;;5.38;100.00
30636;BME280;17400;52.392;9.750;2023-02-04T05:38:34;102738.75;;;5.31;100.00
30636;BME280;17400;52.392;9.750;2023-02-04T05:41:04;102742.41;;;5.30;100.00
30636;BME280;17400;52.392;9.750;2023-02-04T05:43:32;102747.25;;;5.25;100.00
30636;BME280;17400;52.392;9.750;2023-02-04T05:46:03;102739.31;;;5.23;100.00
30636;BME280;17400;52.392;9.750;2023-02-04T05:48:32;102736.94;;;5.18;100.00
30636;BME280;17400;52.392;9.750;2023-02-04T05:51:00;102746.41;;;5.24;100.00
30636;BME280;17400;52.392;9.750;2023-02-04T05:53:28;102753.50;;;5.25;100.00
30636;BME280;17400;52.392;9.750;2023-02-04T05:55:56;102768.97;;;5.22;100.00
30636;BME280;17400;52.392;9.750;2023-02-04T05:58:23;102773.59;;;5.20;100.00
30636;BME280;17400;52.392;9.750;2023-02-04T06:00:51;102774.34;;;5.09;100.00
30636;BME280;17400;52.392;9.750;2023-02-04T06:03:19;102780.06;;;5.04;100.00
30636;BME280;17400;52.392;9.750;2023-02-04T06:05:48;102779.53;;;4.99;100.00
30636;BME280;17400;52.392;9.750;2023-02-04T06:08:16;102779.66;;;4.97;100.00
30636;BME280;17400;52.392;9.750;2023-02-04T06:10:46;102777.69;;;4.99;100.00
30636;BME280;17400;52.392;9.750;2023-02-04T06:13:14;102775.25;;;4.96;100.00
30636;BME280;17400;52.392;9.750;2023-02-04T06:15:42;102781.22;;;5.00;100.00
30636;BME280;17400;52.392;9.750;2023-02-04T06:18:10;102787.38;;;5.02;100.00
30636;BME280;17400;52.392;9.750;2023-02-04T06:20:37;102798.22;;;5.00;100.00
30636;BME280;17400;52.392;9.750;2023-02-04T06:23:06;102800.13;;;4.98;100.00
30636;BME280;17400;52.392;9.750;2023-02-04T06:25:35;102806.16;;;4.89;100.00
30636;BME280;17400;52.392;9.750;2023-02-04T06:28:03;102807.22;;;4.87;100.00
30636;BME280;17400;52.392;9.750;2023-02-04T06:30:32;102812.94;;;4.82;100.00
30636;BME280;17400;52.392;9.750;2023-02-04T06:33:00;102825.94;;;4.75;100.00
30636;BME280;17400;52.392;9.750;2023-02-04T06:35:29;102829.69;;;4.73;100.00
30636;BME280;17400;52.392;9.750;2023-02-04T06:37:57;102827.00;;;4.73;100.00
30636;BME280;17400;52.392;9.750;2023-02-04T06:40:26;102831.41;;;4.74;100.00
30636;BME280;17400;52.392;9.750;2023-02-04T06:42:53;102837.72;;;4.73;100.00
30636;BME280;17400;52.392;9.750;2023-02-04T06:45:21;102824.63;;;4.68;100.00
30636;BME280;17400;52.392;9.750;2023-02-04T06:47:49;102832.88;;;4.65;100.00
30636;BME280;17400;52.392;9.750;2023-02-04T06:50:16;102823.22;;;4.62;100.00
30636;BME280;17400;52.392;9.750;2023-02-04T06:52:44;102828.59;;;4.62;100.00
30636;BME280;17400;52.392;9.750;2023-02-04T06:55:13;102834.06;;;4.61;100.00
30636;BME280;17400;52.392;9.750;2023-02-04T06:57:42;102843.84;;;4.62;100.00
30636;BME280;17400;52.392;9.750;2023-02-04T07:00:11;102845.75;;;4.60;100.00
30636;BME280;17400;52.392;9.750;2023-02-04T07:02:41;102858.88;;;4.64;100.00
30636;BME280;17400;52.392;9.750;2023-02-04T07:05:09;102853.69;;;4.61;100.00
30636;BME280;17400;52.392;9.750;2023-02-04T07:07:37;102871.41;;;4.64;100.00
30636;BME280;17400;52.392;9.750;2023-02-04T07:10:05;102871.63;;;4.61;100.00
30636;BME280;17400;52.392;9.750;2023-02-04T07:12:34;102875.03;;;4.63;100.00
30636;BME280;17400;52.392;9.750;2023-02-04T07:15:03;102876.03;;;4.62;100.00
30636;BME280;17400;52.392;9.750;2023-02-04T07:17:31;102879.78;;;4.59;100.00
30636;BME280;17400;52.392;9.750;2023-02-04T07:19:59;102886.41;;;4.54;100.00
30636;BME280;17400;52.392;9.750;2023-02-04T07:22:26;102887.69;;;4.48;100.00
30636;BME280;17400;52.392;9.750;2023-02-04T07:24:54;102895.94;;;4.45;100.00
30636;BME280;17400;52.392;9.750;2023-02-04T07:27:22;102892.59;;;4.41;100.00
30636;BME280;17400;52.392;9.750;2023-02-04T07:29:50;102904.19;;;4.42;100.00
30636;BME280;17400;52.392;9.750;2023-02-04T07:32:19;102907.06;;;4.39;100.00
30636;BME280;17400;52.392;9.750;2023-02-04T07:34:46;102913.09;;;4.42;100.00
30636;BME280;17400;52.392;9.750;2023-02-04T07:37:14;102929.31;;;4.41;100.00
30636;BME280;17400;52.392;9.750;2023-02-04T07:39:42;102920.28;;;4.42;100.00
30636;BME280;17400;52.392;9.750;2023-02-04T07:42:09;102918.34;;;4.44;100.00
30636;BME280;17400;52.392;9.750;2023-02-04T07:44:37;102921.28;;;4.54;100.00
30636;BME280;17400;52.392;9.750;2023-02-04T07:47:05;102924.50;;;4.59;100.00
30636;BME280;17400;52.392;9.750;2023-02-04T07:49:34;102929.59;;;4.63;100.00
30636;BME280;17400;52.392;9.750;2023-02-04T07:52:04;102939.81;;;4.71;100.00
30636;BME280;17400;52.392;9.750;2023-02-04T07:54:32;102944.09;;;4.74;100.00
30636;BME280;17400;52.392;9.750;2023-02-04T07:56:59;102946.56;;;4.77;100.00
30636;BME280;17400;52.392;9.750;2023-02-04T07:59:27;102957.09;;;4.80;100.00
30636;BME280;17400;52.392;9.750;2023-02-04T08:01:55;102960.44;;;4.83;100.00
30636;BME280;17400;52.392;9.750;2023-02-04T08:04:23;102952.94;;;4.89;100.00
30636;BME280;17400;52.392;9.750;2023-02-04T08:06:54;102949.06;;;4.93;100.00
30636;BME280;17400;52.392;9.750;2023-02-04T08:09:22;102956.50;;;5.02;100.00
30636;BME280;17400;52.392;9.750;2023-02-04T08:11:52;102948.13;;;5.07;100.00
30636;BME280;17400;52.392;9.750;2023-02-04T08:14:20;102949.41;;;5.14;100.00
30636;BME280;17400;52.392;9.750;2023-02-04T08:16:48;102957.06;;;5.20;100.00
30636;BME280;17400;52.392;9.750;2023-02-04T08:19:16;102952.53;;;5.21;100.00
30636;BME280;17400;52.392;9.750;2023-02-04T08:21:47;102954.56;;;5.04;100.00
30636;BME280;17400;52.392;9.750;2023-02-04T08:24:16;102954.72;;;4.88;100.00
30636;BME280;17400;52.392;9.750;2023-02-04T08:26:44;102947.63;;;4.74;100.00
30636;BME280;17400;52.392;9.750;2023-02-04T08:29:12;102954.50;;;4.78;100.00
30636;BME280;17400;52.392;9.750;2023-02-04T08:31:40;102958.84;;;4.94;100.00
30636;BME280;17400;52.392;9.750;2023-02-04T08:34:09;102954.34;;;5.07;100.00
30636;BME280;17400;52.392;9.750;2023-02-04T08:36:37;102954.41;;;4.80;100.00
30636;BME280;17400;52.392;9.750;2023-02-04T08:39:05;102957.84;;;4.82;100.00
30636;BME280;17400;52.392;9.750;2023-02-04T08:41:34;102966.69;;;4.97;100.00
30636;BME280;17400;52.392;9.750;2023-02-04T08:44:01;102966.59;;;5.11;100.00
30636;BME280;17400;52.392;9.750;2023-02-04T08:46:29;102964.03;;;5.10;100.00
30636;BME280;17400;52.392;9.750;2023-02-04T08:48:59;102980.88;;;4.99;100.00
30636;BME280;17400;52.392;9.750;2023-02-04T08:51:27;102979.53;;;4.92;100.00
30636;BME280;17400;52.392;9.750;2023-02-04T08:53:55;102989.44;;;4.91;100.00
30636;BME280;17400;52.392;9.750;2023-02-04T08:56:23;102993.75;;;4.94;100.00
30636;BME280;17400;52.392;9.750;2023-02-04T08:58:52;102988.03;;;4.86;100.00
30636;BME280;17400;52.392;9.750;2023-02-04T09:01:20;102990.72;;;4.98;100.00
30636;BME280;17400;52.392;9.750;2023-02-04T09:03:47;102989.47;;;5.17;100.00
30636;BME280;17400;52.392;9.750;2023-02-04T09:06:15;102997.53;;;5.30;100.00
30636;BME280;17400;52.392;9.750;2023-02-04T09:08:43;103002.81;;;5.44;100.00
30636;BME280;17400;52.392;9.750;2023-02-04T09:11:10;103001.41;;;5.51;100.00
30636;BME280;17400;52.392;9.750;2023-02-04T09:13:38;103004.84;;;5.41;100.00
30636;BME280;17400;52.392;9.750;2023-02-04T09:16:07;103000.78;;;5.35;100.00
30636;BME280;17400;52.392;9.750;2023-02-04T09:18:36;103002.94;;;5.56;100.00
30636;BME280;17400;52.392;9.750;2023-02-04T09:21:04;103015.50;;;5.68;100.00
30636;BME280;17400;52.392;9.750;2023-02-04T09:23:32;103013.88;;;5.40;100.00
30636;BME280;17400;52.392;9.750;2023-02-04T09:25:59;103031.41;;;5.45;100.00
30636;BME280;17400;52.392;9.750;2023-02-04T09:28:29;103036.88;;;5.31;100.00
30636;BME280;17400;52.392;9.750;2023-02-04T09:30:57;103023.34;;;5.45;100.00
30636;BME280;17400;52.392;9.750;2023-02-04T09:33:29;103030.88;;;5.66;99.76
30636;BME280;17400;52.392;9.750;2023-02-04T09:35:57;103025.19;;;5.83;100.00
30636;BME280;17400;52.392;9.750;2023-02-04T09:38:27;103023.75;;;5.91;99.83
30636;BME280;17400;52.392;9.750;2023-02-04T09:40:59;103027.56;;;6.01;99.08
30636;BME280;17400;52.392;9.750;2023-02-04T09:43:30;103029.25;;;5.76;94.98
30636;BME280;17400;52.392;9.750;2023-02-04T09:45:59;103037.22;;;5.78;96.62
30636;BME280;17400;52.392;9.750;2023-02-04T09:48:29;103052.91;;;5.45;97.22
30636;BME280;17400;52.392;9.750;2023-02-04T09:51:04;103042.06;;;5.60;98.00
30636;BME280;17400;52.392;9.750;2023-02-04T09:53:35;103047.31;;;5.61;94.64
30636;BME280;17400;52.392;9.750;2023-02-04T09:56:05;103051.59;;;5.38;93.66
30636;BME280;17400;52.392;9.750;2023-02-04T09:58:35;103049.13;;;5.61;94.23
30636;BME280;17400;52.392;9.750;2023-02-04T10:01:10;103055.94;;;5.66;92.60
30636;BME280;17400;52.392;9.750;2023-02-04T10:03:41;103057.09;;;5.75;89.82
30636;BME280;17400;52.392;9.750;2023-02-04T10:06:15;103062.91;;;5.82;89.05
30636;BME280;17400;52.392;9.750;2023-02-04T10:08:44;103065.59;;;5.95;90.84
30636;BME280;17400;52.392;9.750;2023-02-04T10:11:16;103073.03;;;6.04;91.19
30636;BME280;17400;52.392;9.750;2023-02-04T10:13:46;103075.19;;;5.99;87.57
30636;BME280;17400;52.392;9.750;2023-02-04T10:16:17;103072.56;;;5.84;86.75
30636;BME280;17400;52.392;9.750;2023-02-04T10:18:47;103076.25;;;5.71;86.35
30636;BME280;17400;52.392;9.750;2023-02-04T10:21:17;103078.59;;;5.75;86.79
30636;BME280;17400;52.392;9.750;2023-02-04T10:23:50;103085.16;;;5.71;88.28
30636;BME280;17400;52.392;9.750;2023-02-04T10:26:21;103086.78;;;5.74;89.22
30636;BME280;17400;52.392;9.750;2023-02-04T10:28:48;103084.75;;;5.90;90.48
30636;BME280;17400;52.392;9.750;2023-02-04T10:31:29;103087.03;;;6.09;90.41
30636;BME280;17400;52.392;9.750;2023-02-04T10:34:11;103088.63;;;6.12;86.34
30636;BME280;17400;52.392;9.750;2023-02-04T10:36:43;103091.53;;;6.09;88.00
30636;BME280;17400;52.392;9.750;2023-02-04T10:39:13;103093.88;;;6.13;88.35
30636;BME280;17400;52.392;9.750;2023-02-04T10:41:46;103093.78;;;6.28;88.35
30636;BME280;17400;52.392;9.750;2023-02-04T10:44:17;103098.84;;;6.32;85.36
30636;BME280;17400;52.392;9.750;2023-02-04T10:46:45;103099.66;;;6.46;86.73
30636;BME280;17400;52.392;9.750;2023-02-04T10:49:21;103101.00;;;6.27;84.47
30636;BME280;17400;52.392;9.750;2023-02-04T10:51:50;103101.06;;;5.87;82.39
30636;BME280;17400;52.392;9.750;2023-02-04T10:54:20;103103.13;;;5.71;83.35
30636;BME280;17400;52.392;9.750;2023-02-04T10:56:57;103098.19;;;5.77;84.74
30636;BME280;17400;52.392;9.750;2023-02-04T10:59:28;103094.84;;;5.87;85.38
30636;BME280;17400;52.392;9.750;2023-02-04T11:01:59;103099.66;;;5.68;86.81
30636;BME280;17400;52.392;9.750;2023-02-04T11:04:30;103094.53;;;5.78;89.29
30636;BME280;17400;52.392;9.750;2023-02-04T11:06:57;103097.84;;;5.56;88.83
30636;BME280;17400;52.392;9.750;2023-02-04T11:09:25;103094.38;;;5.54;88.95
30636;BME280;17400;52.392;9.750;2023-02-04T11:11:58;103096.66;;;5.60;86.57
30636;BME280;17400;52.392;9.750;2023-02-04T11:14:28;103113.44;;;5.64;87.34
30636;BME280;17400;52.392;9.750;2023-02-04T11:16:56;103112.03;;;5.71;86.50
30636;BME280;17400;52.392;9.750;2023-02-04T11:19:33;103105.91;;;5.82;86.84
30636;BME280;17400;52.392;9.750;2023-02-04T11:22:07;103108.72;;;5.80;84.96
30636;BME280;17400;52.392;9.750;2023-02-04T11:24:47;103115.25;;;5.76;86.28
30636;BME280;17400;52.392;9.750;2023-02-04T11:27:23;103107.63;;;5.83;88.24
30636;BME280;17400;52.392;9.750;2023-02-04T11:30:03;103099.38;;;5.86;87.29
30636;BME280;17400;52.392;9.750;2023-02-04T11:32:35;103095.38;;;5.92;85.06
30636;BME280;17400;52.392;9.750;2023-02-04T11:35:20;103110.44;;;5.81;84.99
30636;BME280;17400;52.392;9.750;2023-02-04T11:37:48;103110.13;;;5.86;86.25
30636;BME280;17400;52.392;9.750;2023-02-04T11:40:23;103104.00;;;5.97;86.74
30636;BME280;17400;52.392;9.750;2023-02-04T11:43:00;103093.69;;;6.04;87.94
30636;BME280;17400;52.392;9.750;2023-02-04T11:45:31;103107.56;;;6.10;84.79
30636;BME280;17400;52.392;9.750;2023-02-04T11:48:01;103117.13;;;6.14;84.43
30636;BME280;17400;52.392;9.750;2023-02-04T11:50:33;103115.28;;;6.15;83.92
30636;BME280;17400;52.392;9.750;2023-02-04T11:53:04;103115.41;;;6.13;82.33
30636;BME280;17400;52.392;9.750;2023-02-04T11:55:35;103116.13;;;6.28;83.90
30636;BME280;17400;52.392;9.750;2023-02-04T11:58:03;103118.75;;;6.17;84.24
30636;BME280;17400;52.392;9.750;2023-02-04T12:00:32;103112.47;;;6.29;85.07
30636;BME280;17400;52.392;9.750;2023-02-04T12:03:02;103116.44;;;6.49;86.49
30636;BME280;17400;52.392;9.750;2023-02-04T12:05:40;103113.91;;;6.35;83.43
30636;BME280;17400;52.392;9.750;2023-02-04T12:08:10;103110.97;;;6.38;83.19
30636;BME280;17400;52.392;9.750;2023-02-04T12:10:38;103108.34;;;6.49;82.27
30636;BME280;17400;52.392;9.750;2023-02-04T12:13:16;103107.91;;;6.56;80.68
30636;BME280;17400;52.392;9.750;2023-02-04T12:15:53;103103.97;;;6.48;80.56
30636;BME280;17400;52.392;9.750;2023-02-04T12:18:21;103109.69;;;6.31;77.04
30636;BME280;17400;52.392;9.750;2023-02-04T12:20:50;103116.47;;;6.24;79.23
30636;BME280;17400;52.392;9.750;2023-02-04T12:23:17;103110.16;;;6.62;78.31
30636;BME280;17400;52.392;9.750;2023-02-04T12:25:46;103114.31;;;6.79;75.09
30636;BME280;17400;52.392;9.750;2023-02-04T12:28:14;103112.88;;;6.86;71.21
30636;BME280;17400;52.392;9.750;2023-02-04T12:30:41;103120.84;;;6.88;70.50
30636;BME280;17400;52.392;9.750;2023-02-04T12:33:09;103126.59;;;7.07;69.99
30636;BME280;17400;52.392;9.750;2023-02-04T12:35:40;103122.75;;;7.23;70.66
30636;BME280;17400;52.392;9.750;2023-02-04T12:38:09;103113.88;;;7.09;68.87
30636;BME280;17400;52.392;9.750;2023-02-04T12:40:37;103128.34;;;6.95;69.58
30636;BME280;17400;52.392;9.750;2023-02-04T12:43:05;103118.22;;;6.99;71.16
30636;BME280;17400;52.392;9.750;2023-02-04T12:45:33;103124.75;;;7.08;70.82
30636;BME280;17400;52.392;9.750;2023-02-04T12:48:01;103123.47;;;7.25;70.68
30636;BME280;17400;52.392;9.750;2023-02-04T12:50:29;103128.88;;;7.25;72.11
30636;BME280;17400;52.392;9.750;2023-02-04T12:52:58;103132.84;;;7.32;70.63
30636;BME280;17400;52.392;9.750;2023-02-04T12:55:27;103135.97;;;7.26;68.20
30636;BME280;17400;52.392;9.750;2023-02-04T12:57:58;103138.78;;;7.24;68.08
30636;BME280;17400;52.392;9.750;2023-02-04T13:00:26;103134.50;;;6.97;68.57
30636;BME280;17400;52.392;9.750;2023-02-04T13:02:56;103140.44;;;6.90;68.95